Time;durP1;ratioP1;P1;durP2;ratioP2;P2;SDS_P1;SDS_P2;PMS_P1;PMS_P2;Temp;Humidity;BMP_temperature;BMP_pressure;BME280_temperature;BME280_humidity;BME280_pressure;Samples;Min_cycle;Max_cycle;Signal;HPM_P1;HPM_P2
2023/03/30 00:00:19;;;;;;;;;;;;;;;8.79;79.82;98179.72;5071283;28;19916;-79
2023/03/30 00:02:45;;;;;;;;;;;;;;;8.82;79.40;98165.94;5068019;28;19973;-79
2023/03/30 00:05:12;;;;;;;;;;;;;;;8.86;79.67;98156.38;5086083;28;20471;-79
2023/03/30 00:07:41;;;;;;;;;;;;;;;8.87;79.89;98166.75;5087410;28;19951;-79
2023/03/30 00:10:10;;;;;;;;;;;;;;;8.83;79.65;98167.53;5084328;28;19920;-79
2023/03/30 00:12:35;;;;;;;;;;;;;;;8.79;79.22;98163.75;5068600;28;19931;-79
2023/03/30 00:15:01;;;;;;;;;;;;;;;8.83;80.08;98156.88;5089649;28;19918;-80
2023/03/30 00:17:26;;;;;;;;;;;;;;;8.86;79.04;98154.53;5085528;28;19934;-79
2023/03/30 00:19:52;;;;;;;;;;;;;;;8.82;79.74;98155.28;5090360;28;19947;-80
2023/03/30 00:22:17;;;;;;;;;;;;;;;8.78;79.81;98147.00;5070901;28;21596;-80
2023/03/30 00:24:42;;;;;;;;;;;;;;;8.74;80.83;98140.56;5070795;28;19920;-79
2023/03/30 00:27:08;;;;;;;;;;;;;;;8.81;79.54;98143.84;5066944;28;20556;-80
2023/03/30 00:29:33;;;;;;;;;;;;;;;8.60;81.94;98128.78;5092279;28;20019;-80
2023/03/30 00:31:58;;;;;;;;;;;;;;;8.82;80.25;98129.47;5088309;28;20545;-80
2023/03/30 00:34:23;;;;;;;;;;;;;;;8.85;80.35;98128.16;5088619;28;19921;-80
2023/03/30 00:36:52;;;;;;;;;;;;;;;8.76;80.31;98132.34;5084286;28;19924;-80
2023/03/30 00:39:17;;;;;;;;;;;;;;;8.73;80.27;98115.03;5058266;28;20365;-80
2023/03/30 00:41:43;;;;;;;;;;;;;;;8.75;80.22;98118.25;5070217;28;20014;-80
2023/03/30 00:44:28;;;;;;;;;;;;;;;8.70;80.79;98110.22;5092036;28;19927;-80
2023/03/30 00:46:54;;;;;;;;;;;;;;;8.72;81.04;98110.75;5072753;28;19962;-80
2023/03/30 00:49:20;;;;;;;;;;;;;;;8.58;81.11;98111.47;5084862;28;19955;-80
2023/03/30 00:51:49;;;;;;;;;;;;;;;8.70;80.59;98115.53;5093829;28;20272;-80
2023/03/30 00:54:17;;;;;;;;;;;;;;;8.56;81.36;98113.56;5087736;28;19920;-80
2023/03/30 00:56:42;;;;;;;;;;;;;;;8.59;81.33;98108.53;5070298;28;20017;-80
2023/03/30 00:59:08;;;;;;;;;;;;;;;8.35;82.52;98099.28;5062522;28;19995;-80
2023/03/30 01:01:37;;;;;;;;;;;;;;;8.50;81.72;98093.28;5071986;28;19927;-79
2023/03/30 01:04:04;;;;;;;;;;;;;;;8.50;81.29;98082.66;5084692;28;19965;-79
2023/03/30 01:06:30;;;;;;;;;;;;;;;8.55;80.96;98082.69;5087083;28;19920;-80
2023/03/30 01:08:56;;;;;;;;;;;;;;;8.55;81.72;98078.19;5088978;28;19916;-80
2023/03/30 01:11:22;;;;;;;;;;;;;;;8.52;81.00;98085.88;5074457;28;19927;-80
2023/03/30 01:13:51;;;;;;;;;;;;;;;8.48;80.98;98084.75;5092552;28;20429;-79
2023/03/30 01:16:32;;;;;;;;;;;;;;;8.48;81.16;98084.75;5080322;28;19915;-80
2023/03/30 01:19:00;;;;;;;;;;;;;;;8.47;81.08;98075.19;5072025;28;20376;-80
2023/03/30 01:21:47;;;;;;;;;;;;;;;8.37;81.66;98078.56;5090181;28;20280;-80
2023/03/30 01:24:26;;;;;;;;;;;;;;;8.44;82.30;98070.38;5088473;28;19927;-80
2023/03/30 01:26:52;;;;;;;;;;;;;;;8.32;81.47;98077.72;5082740;28;19917;-80
2023/03/30 01:29:37;;;;;;;;;;;;;;;8.10;83.22;98081.19;5084189;28;20205;-80
2023/03/30 01:32:09;;;;;;;;;;;;;;;8.30;82.62;98067.31;5027850;28;19916;-80
2023/03/30 01:34:47;;;;;;;;;;;;;;;8.39;81.41;98055.16;5089394;28;19920;-79
2023/03/30 01:37:25;;;;;;;;;;;;;;;8.33;81.92;98064.16;5075597;28;19923;-80
2023/03/30 01:40:08;;;;;;;;;;;;;;;8.35;81.31;98051.41;5089399;28;20019;-80
2023/03/30 01:42:37;;;;;;;;;;;;;;;8.18;81.89;98037.41;5072383;28;19924;-80
2023/03/30 01:45:13;;;;;;;;;;;;;;;8.36;81.10;98042.41;5087906;28;19970;-79
2023/03/30 01:47:41;;;;;;;;;;;;;;;8.33;80.97;98045.56;5066458;28;19970;-80
2023/03/30 01:50:07;;;;;;;;;;;;;;;8.29;81.61;98041.81;5082183;28;19916;-79
2023/03/30 01:52:40;;;;;;;;;;;;;;;8.26;81.72;98035.13;5087515;28;19916;-80
2023/03/30 01:55:05;;;;;;;;;;;;;;;8.00;82.78;98030.63;5086040;28;19916;-80
2023/03/30 01:57:40;;;;;;;;;;;;;;;8.15;81.93;98027.28;5089376;28;20318;-80
2023/03/30 02:00:13;;;;;;;;;;;;;;;8.21;80.81;98018.31;5087253;28;19922;-79
2023/03/30 02:02:40;;;;;;;;;;;;;;;8.17;81.33;98028.63;5082502;28;19923;-79
2023/03/30 02:05:07;;;;;;;;;;;;;;;8.18;80.83;98021.47;5083332;28;19967;-79
2023/03/30 02:07:34;;;;;;;;;;;;;;;8.06;81.61;98032.25;5069578;28;19921;-79
2023/03/30 02:10:02;;;;;;;;;;;;;;;7.52;85.00;98020.84;5065612;28;20007;-80
2023/03/30 02:12:29;;;;;;;;;;;;;;;7.69;83.54;98019.97;5050763;28;20424;-79
2023/03/30 02:14:57;;;;;;;;;;;;;;;8.09;81.21;98034.44;5086234;28;20388;-80
2023/03/30 02:17:23;;;;;;;;;;;;;;;8.04;81.07;98029.06;5063342;28;19927;-79
2023/03/30 02:19:49;;;;;;;;;;;;;;;7.51;83.85;98027.19;5062887;28;19930;-79
2023/03/30 02:22:14;;;;;;;;;;;;;;;7.80;83.56;98013.69;5084057;28;19987;-79
2023/03/30 02:24:41;;;;;;;;;;;;;;;7.56;84.84;98021.94;5083860;28;19939;-80
2023/03/30 02:27:07;;;;;;;;;;;;;;;7.94;83.08;98015.69;5085922;28;19917;-79
2023/03/30 02:29:35;;;;;;;;;;;;;;;7.60;84.00;98013.47;5086192;28;19999;-79
2023/03/30 02:32:00;;;;;;;;;;;;;;;7.72;83.90;98017.59;5087200;28;19934;-79
2023/03/30 02:34:44;;;;;;;;;;;;;;;7.62;84.53;98012.19;5067283;28;19916;-79
2023/03/30 02:37:24;;;;;;;;;;;;;;;7.67;82.62;98008.75;5085683;28;19919;-80
2023/03/30 02:40:12;;;;;;;;;;;;;;;7.64;83.95;97999.44;5082888;28;19946;-80
2023/03/30 02:42:37;;;;;;;;;;;;;;;7.81;82.48;98002.00;5066692;28;20380;-80
2023/03/30 02:45:32;;;;;;;;;;;;;;;7.94;81.27;97999.75;5079487;28;19924;-80
2023/03/30 02:48:10;;;;;;;;;;;;;;;7.93;80.97;98007.97;5063370;28;20410;-80
2023/03/30 02:50:48;;;;;;;;;;;;;;;7.84;81.16;97998.84;5084621;28;19977;-80
2023/03/30 02:53:24;;;;;;;;;;;;;;;7.77;83.16;97984.97;5083280;28;19928;-80
2023/03/30 02:55:56;;;;;;;;;;;;;;;7.81;82.33;97967.47;5088945;28;19924;-80
2023/03/30 02:58:22;;;;;;;;;;;;;;;7.99;81.36;97977.72;5067246;28;19948;-80
2023/03/30 03:00:53;;;;;;;;;;;;;;;7.94;80.57;97981.16;5083997;28;19916;-79
2023/03/30 03:03:27;;;;;;;;;;;;;;;8.02;80.43;97975.38;5070030;28;20019;-79
2023/03/30 03:05:53;;;;;;;;;;;;;;;8.05;80.71;97979.38;5068931;28;19927;-79
2023/03/30 03:08:22;;;;;;;;;;;;;;;8.03;81.30;97976.16;5068298;28;19924;-79
2023/03/30 03:10:47;;;;;;;;;;;;;;;8.05;81.15;97974.06;5066582;28;19935;-79
2023/03/30 03:13:13;;;;;;;;;;;;;;;8.20;81.42;97974.19;5068427;28;19925;-79
2023/03/30 03:15:39;;;;;;;;;;;;;;;8.21;82.04;97978.44;5089994;28;19916;-79
2023/03/30 03:18:05;;;;;;;;;;;;;;;8.21;82.13;97967.81;5085337;28;20013;-79
2023/03/30 03:20:30;;;;;;;;;;;;;;;8.26;82.56;97981.16;5085019;28;20334;-80
2023/03/30 03:22:55;;;;;;;;;;;;;;;8.31;82.09;97965.25;5083146;28;19947;-79
2023/03/30 03:25:21;;;;;;;;;;;;;;;8.33;83.03;97987.06;5051881;28;19974;-79
2023/03/30 03:27:46;;;;;;;;;;;;;;;8.35;82.58;97982.28;5065142;28;20306;-79
2023/03/30 03:30:12;;;;;;;;;;;;;;;8.45;81.90;97987.69;5083861;28;19916;-79
2023/03/30 03:32:37;;;;;;;;;;;;;;;8.59;82.16;97988.03;5082798;28;21260;-79
2023/03/30 03:35:02;;;;;;;;;;;;;;;8.58;82.37;97987.25;5062084;28;19935;-79
2023/03/30 03:37:27;;;;;;;;;;;;;;;8.58;81.44;97973.97;5081433;28;19920;-79
2023/03/30 03:39:53;;;;;;;;;;;;;;;8.68;81.67;97982.00;5066795;28;19963;-80
2023/03/30 03:42:18;;;;;;;;;;;;;;;8.74;81.38;97977.47;5067082;28;19928;-79
2023/03/30 03:44:43;;;;;;;;;;;;;;;8.80;80.84;97971.16;5062746;28;19927;-80
2023/03/30 03:47:08;;;;;;;;;;;;;;;8.77;81.46;97961.00;5077758;28;20604;-79
2023/03/30 03:49:34;;;;;;;;;;;;;;;8.85;81.42;97945.34;5068297;28;19927;-80
2023/03/30 03:51:59;;;;;;;;;;;;;;;8.89;80.82;97942.97;5087531;28;19951;-79
2023/03/30 03:54:24;;;;;;;;;;;;;;;8.90;81.14;97945.38;5065728;28;19926;-80
2023/03/30 03:56:50;;;;;;;;;;;;;;;8.96;80.65;97939.03;5067086;28;20031;-80
2023/03/30 03:59:16;;;;;;;;;;;;;;;8.95;80.49;97933.97;5061180;28;19920;-79
2023/03/30 04:01:41;;;;;;;;;;;;;;;8.92;80.05;97921.97;5076614;28;19935;-80
2023/03/30 04:04:06;;;;;;;;;;;;;;;8.91;80.26;97914.25;5082122;28;19916;-79
2023/03/30 04:06:31;;;;;;;;;;;;;;;8.94;80.02;97908.41;5077269;28;19925;-80
2023/03/30 04:08:57;;;;;;;;;;;;;;;8.97;80.14;97907.91;5082068;28;19920;-80
2023/03/30 04:11:22;;;;;;;;;;;;;;;9.00;80.47;97921.47;5056175;28;20407;-80
2023/03/30 04:13:48;;;;;;;;;;;;;;;9.01;80.01;97923.09;5060098;28;19931;-80
2023/03/30 04:16:13;;;;;;;;;;;;;;;8.99;79.89;97933.19;5051876;28;21070;-80
2023/03/30 04:18:40;;;;;;;;;;;;;;;9.05;79.92;97929.47;5064286;28;19924;-80
2023/03/30 04:21:05;;;;;;;;;;;;;;;9.03;80.02;97904.19;5084491;28;20019;-79
2023/03/30 04:23:32;;;;;;;;;;;;;;;9.13;79.46;97906.09;5055135;28;20023;-79
2023/03/30 04:26:00;;;;;;;;;;;;;;;9.17;78.91;97897.31;5082732;28;19955;-80
2023/03/30 04:28:28;;;;;;;;;;;;;;;9.19;79.17;97889.88;5081698;28;19937;-79
2023/03/30 04:30:57;;;;;;;;;;;;;;;9.21;79.85;97886.94;5068622;28;20396;-80
2023/03/30 04:33:23;;;;;;;;;;;;;;;9.26;79.63;97900.28;5068752;28;19935;-80
2023/03/30 04:35:48;;;;;;;;;;;;;;;9.28;79.72;97890.97;5085826;28;19921;-80
2023/03/30 04:38:21;;;;;;;;;;;;;;;9.35;79.04;97872.84;5089113;28;19973;-80
2023/03/30 04:40:50;;;;;;;;;;;;;;;9.35;78.86;97885.38;5062927;28;19921;-80
2023/03/30 04:43:19;;;;;;;;;;;;;;;9.39;78.78;97894.44;5084072;28;20425;-80
2023/03/30 04:45:51;;;;;;;;;;;;;;;9.41;79.40;97890.44;5093039;28;19916;-80
2023/03/30 04:48:18;;;;;;;;;;;;;;;9.44;79.78;97905.88;5088891;28;19924;-80
2023/03/30 04:50:44;;;;;;;;;;;;;;;9.48;79.27;97898.19;5094839;28;20363;-81
2023/03/30 04:53:09;;;;;;;;;;;;;;;9.47;79.07;97893.91;5073116;28;19924;-80
2023/03/30 04:55:34;;;;;;;;;;;;;;;9.49;79.47;97881.94;5075996;28;19927;-80
2023/03/30 04:58:00;;;;;;;;;;;;;;;9.48;79.48;97869.66;5092847;28;20379;-82
2023/03/30 05:00:26;;;;;;;;;;;;;;;9.53;79.60;97848.38;5082532;28;19924;-81
2023/03/30 05:02:51;;;;;;;;;;;;;;;9.61;79.66;97861.16;5088365;28;19989;-81
2023/03/30 05:05:17;;;;;;;;;;;;;;;9.61;79.92;97865.69;5085085;28;19920;-80
2023/03/30 05:07:42;;;;;;;;;;;;;;;9.55;79.88;97864.06;5087237;28;20011;-80
2023/03/30 05:10:07;;;;;;;;;;;;;;;9.51;80.24;97873.66;5086443;28;19962;-81
2023/03/30 05:12:32;;;;;;;;;;;;;;;9.51;81.17;97855.81;5069418;28;19968;-82
2023/03/30 05:14:58;;;;;;;;;;;;;;;9.52;80.98;97859.28;5085522;28;19924;-81
2023/03/30 05:17:23;;;;;;;;;;;;;;;9.52;81.25;97848.63;5069250;28;20014;-81
2023/03/30 05:19:48;;;;;;;;;;;;;;;9.61;80.65;97852.38;5082580;28;19916;-80
2023/03/30 05:22:13;;;;;;;;;;;;;;;9.62;80.72;97852.09;5070052;28;19935;-81
2023/03/30 05:24:39;;;;;;;;;;;;;;;9.59;80.71;97851.81;5086607;28;19920;-80
2023/03/30 05:27:05;;;;;;;;;;;;;;;9.56;81.32;97852.38;5091576;28;19924;-80
2023/03/30 05:29:31;;;;;;;;;;;;;;;9.57;80.99;97843.28;5085733;28;20000;-81
2023/03/30 05:31:56;;;;;;;;;;;;;;;9.54;81.73;97838.50;5081840;28;19959;-81
2023/03/30 05:34:22;;;;;;;;;;;;;;;9.57;81.57;97848.63;5090710;28;19916;-81
2023/03/30 05:36:47;;;;;;;;;;;;;;;9.50;81.54;97840.91;5085550;28;19916;-81
2023/03/30 05:39:13;;;;;;;;;;;;;;;9.52;81.66;97824.66;5091826;28;19928;-82
2023/03/30 05:41:38;;;;;;;;;;;;;;;9.53;82.00;97827.06;5069257;28;19976;-79
2023/03/30 05:44:03;;;;;;;;;;;;;;;9.49;81.44;97836.66;5084660;28;19924;-81
2023/03/30 05:46:31;;;;;;;;;;;;;;;9.47;81.52;97835.31;5073701;28;22000;-80
2023/03/30 05:48:56;;;;;;;;;;;;;;;9.56;81.97;97837.19;5064382;28;19925;-80
2023/03/30 05:51:21;;;;;;;;;;;;;;;9.58;82.27;97835.06;5071412;28;20439;-80
2023/03/30 05:53:47;;;;;;;;;;;;;;;9.62;81.90;97829.97;5083809;28;19924;-82
2023/03/30 05:56:12;;;;;;;;;;;;;;;9.74;81.27;97838.53;5090651;28;19920;-80
2023/03/30 05:58:37;;;;;;;;;;;;;;;9.80;81.32;97834.78;5082698;28;20028;-80
2023/03/30 06:01:04;;;;;;;;;;;;;;;9.79;81.68;97827.84;5072117;28;21265;-80
2023/03/30 06:03:30;;;;;;;;;;;;;;;9.81;81.05;97834.50;5088311;28;20394;-81
2023/03/30 06:05:55;;;;;;;;;;;;;;;9.90;81.37;97840.09;5084689;28;19924;-81
2023/03/30 06:08:20;;;;;;;;;;;;;;;9.86;81.79;97841.69;5067361;28;19916;-81
2023/03/30 06:10:53;;;;;;;;;;;;;;;9.97;81.93;97845.16;5087020;28;19920;-81
2023/03/30 06:13:18;;;;;;;;;;;;;;;9.98;81.64;97839.53;5090050;28;20006;-81
2023/03/30 06:15:46;;;;;;;;;;;;;;;10.02;83.00;97832.63;5087030;28;19928;-81
2023/03/30 06:18:15;;;;;;;;;;;;;;;10.07;82.07;97839.81;5088150;28;20061;-81
2023/03/30 06:20:40;;;;;;;;;;;;;;;10.06;82.65;97838.22;5091190;28;19924;-80
2023/03/30 06:23:06;;;;;;;;;;;;;;;10.12;82.01;97840.63;5086890;28;19939;-81
2023/03/30 06:25:31;;;;;;;;;;;;;;;10.36;82.60;97830.97;5070912;28;19916;-82
2023/03/30 06:27:56;;;;;;;;;;;;;;;10.44;82.09;97824.28;5083095;28;19942;-81
2023/03/30 06:30:22;;;;;;;;;;;;;;;10.38;81.70;97841.34;5086761;28;19948;-81
2023/03/30 06:32:47;;;;;;;;;;;;;;;10.35;81.97;97840.03;5087647;28;20341;-81
2023/03/30 06:35:14;;;;;;;;;;;;;;;10.38;82.31;97846.69;5068647;28;19928;-81
2023/03/30 06:37:40;;;;;;;;;;;;;;;10.36;81.14;97862.16;5070425;28;20015;-81
2023/03/30 06:40:07;;;;;;;;;;;;;;;10.35;82.11;97861.34;5085698;28;19983;-81
2023/03/30 06:42:32;;;;;;;;;;;;;;;10.29;82.00;97873.13;5073147;28;19966;-81
2023/03/30 06:44:58;;;;;;;;;;;;;;;10.31;81.84;97878.97;5087765;28;20030;-81
2023/03/30 06:47:23;;;;;;;;;;;;;;;10.32;81.81;97875.25;5056881;28;19970;-81
2023/03/30 06:49:48;;;;;;;;;;;;;;;10.34;81.63;97878.44;5055258;28;19924;-81
2023/03/30 06:52:14;;;;;;;;;;;;;;;10.40;82.06;97860.56;5085792;28;20144;-81
2023/03/30 06:54:39;;;;;;;;;;;;;;;10.39;81.35;97872.31;5083588;28;19947;-81
2023/03/30 06:57:04;;;;;;;;;;;;;;;10.41;81.30;97870.16;5066412;28;19917;-81
2023/03/30 06:59:31;;;;;;;;;;;;;;;10.38;81.56;97865.34;5063179;28;19927;-81
2023/03/30 07:01:57;;;;;;;;;;;;;;;10.31;81.46;97854.19;5088567;28;19966;-81
2023/03/30 07:04:22;;;;;;;;;;;;;;;10.41;82.40;97849.63;5055607;28;19951;-82
2023/03/30 07:06:47;;;;;;;;;;;;;;;10.47;82.30;97845.88;5066734;28;19960;-82
2023/03/30 07:09:13;;;;;;;;;;;;;;;10.42;82.08;97845.88;5085493;28;19973;-81
2023/03/30 07:11:38;;;;;;;;;;;;;;;10.42;82.75;97840.53;5094616;28;19924;-80
2023/03/30 07:14:04;;;;;;;;;;;;;;;10.46;82.53;97854.94;5084698;28;19924;-83
2023/03/30 07:16:29;;;;;;;;;;;;;;;10.45;82.27;97856.00;5081441;28;20353;-81
2023/03/30 07:18:55;;;;;;;;;;;;;;;10.48;82.47;97860.78;5084787;28;19941;-81
2023/03/30 07:21:20;;;;;;;;;;;;;;;10.55;82.24;97866.63;5066307;28;20148;-81
2023/03/30 07:23:46;;;;;;;;;;;;;;;10.55;82.29;97855.97;5080055;28;19928;-81
2023/03/30 07:26:11;;;;;;;;;;;;;;;10.55;82.76;97852.50;5071483;28;19967;-81
2023/03/30 07:28:37;;;;;;;;;;;;;;;10.58;82.40;97859.97;5084914;28;19924;-81
2023/03/30 07:31:06;;;;;;;;;;;;;;;10.58;82.08;97859.97;5088414;28;19931;-81
2023/03/30 07:33:31;;;;;;;;;;;;;;;10.60;82.42;97847.16;5085778;28;19946;-81
2023/03/30 07:35:56;;;;;;;;;;;;;;;10.62;82.80;97855.69;5087322;28;20011;-81
2023/03/30 07:38:22;;;;;;;;;;;;;;;10.57;82.27;97855.72;5050891;28;19970;-81
2023/03/30 07:40:47;;;;;;;;;;;;;;;10.59;82.48;97852.78;5087859;28;19916;-81
2023/03/30 07:43:12;;;;;;;;;;;;;;;10.61;83.05;97866.63;5064763;28;19932;-81
2023/03/30 07:45:38;;;;;;;;;;;;;;;10.59;81.69;97866.09;5080103;28;19920;-81
2023/03/30 07:48:03;;;;;;;;;;;;;;;10.62;82.26;97871.69;5080371;28;19924;-81
2023/03/30 07:50:29;;;;;;;;;;;;;;;10.56;83.01;97888.78;5085812;28;19951;-82
2023/03/30 07:52:55;;;;;;;;;;;;;;;10.51;82.59;97899.47;5068110;28;20022;-81
2023/03/30 07:55:20;;;;;;;;;;;;;;;10.53;84.12;97884.00;5066999;28;19948;-82
2023/03/30 07:57:45;;;;;;;;;;;;;;;10.51;85.37;97889.59;5066607;28;19931;-82
2023/03/30 08:00:13;;;;;;;;;;;;;;;10.50;85.08;97885.34;5080009;28;19915;-82
2023/03/30 08:02:38;;;;;;;;;;;;;;;10.56;84.98;97904.81;5088695;28;20042;-81
2023/03/30 08:05:03;;;;;;;;;;;;;;;10.54;85.02;97878.41;5070760;28;20011;-81
2023/03/30 08:07:29;;;;;;;;;;;;;;;10.62;84.63;97881.56;5092123;28;20287;-82
2023/03/30 08:09:54;;;;;;;;;;;;;;;10.71;84.72;97880.72;5087964;28;19928;-81
2023/03/30 08:12:19;;;;;;;;;;;;;;;10.74;84.47;97887.41;5072470;28;20376;-81
2023/03/30 08:14:48;;;;;;;;;;;;;;;10.79;84.98;97882.06;5053037;28;20366;-81
2023/03/30 08:17:13;;;;;;;;;;;;;;;10.76;84.87;97875.38;5068660;28;19916;-82
2023/03/30 08:19:38;;;;;;;;;;;;;;;10.77;84.65;97884.97;5074803;28;19956;-81
2023/03/30 08:22:03;;;;;;;;;;;;;;;10.81;84.98;97880.69;5086491;28;19935;-82
2023/03/30 08:24:29;;;;;;;;;;;;;;;10.90;84.72;97870.25;5075264;28;20007;-81
2023/03/30 08:26:54;;;;;;;;;;;;;;;10.86;84.14;97871.84;5093358;28;19916;-81
2023/03/30 08:29:19;;;;;;;;;;;;;;;10.92;83.53;97871.56;5086982;28;19924;-82
2023/03/30 08:31:45;;;;;;;;;;;;;;;10.93;83.39;97865.16;5084752;28;19943;-82
2023/03/30 08:34:11;;;;;;;;;;;;;;;10.95;83.46;97854.19;5061330;28;19924;-82
2023/03/30 08:36:36;;;;;;;;;;;;;;;11.04;83.04;97850.69;5090747;28;19923;-82
2023/03/30 08:39:01;;;;;;;;;;;;;;;11.07;82.95;97865.38;5088051;28;20410;-82
2023/03/30 08:41:26;;;;;;;;;;;;;;;11.06;82.71;97845.88;5084933;28;20312;-82
2023/03/30 08:44:15;;;;;;;;;;;;;;;11.10;82.86;97843.44;5073823;28;19926;-82
2023/03/30 08:46:41;;;;;;;;;;;;;;;11.16;82.87;97837.78;5075190;28;19967;-82
2023/03/30 08:49:12;;;;;;;;;;;;;;;11.22;82.80;97839.38;5085387;28;19916;-82
2023/03/30 08:51:38;;;;;;;;;;;;;;;11.19;82.83;97852.47;5088090;28;19931;-82
2023/03/30 08:54:05;;;;;;;;;;;;;;;11.21;82.78;97853.78;5066685;28;19916;-81
2023/03/30 08:56:32;;;;;;;;;;;;;;;11.26;82.34;97853.78;5082875;28;20441;-82
2023/03/30 08:59:07;;;;;;;;;;;;;;;11.27;82.11;97851.88;5068288;28;20270;-82
2023/03/30 09:01:40;;;;;;;;;;;;;;;11.30;82.73;97852.13;5089523;28;20341;-81
2023/03/30 09:04:12;;;;;;;;;;;;;;;11.44;82.19;97836.28;5087395;28;19920;-82
2023/03/30 09:07:02;;;;;;;;;;;;;;;11.40;82.10;97845.91;5084441;28;19935;-82
2023/03/30 09:09:30;;;;;;;;;;;;;;;11.50;82.03;97839.72;5062773;28;19924;-82
2023/03/30 09:12:03;;;;;;;;;;;;;;;11.60;81.94;97835.06;5091843;28;20367;-81
2023/03/30 09:14:35;;;;;;;;;;;;;;;11.59;81.96;97854.06;5070109;28;20056;-82
2023/03/30 09:17:07;;;;;;;;;;;;;;;11.75;82.01;97834.97;5067215;28;19942;-81
2023/03/30 09:19:36;;;;;;;;;;;;;;;11.73;82.80;97839.81;5069243;28;20264;-81
2023/03/30 09:22:04;;;;;;;;;;;;;;;11.73;82.01;97844.38;5087517;28;19970;-81
2023/03/30 09:24:30;;;;;;;;;;;;;;;11.83;81.58;97850.44;5083544;28;19924;-81
2023/03/30 09:26:59;;;;;;;;;;;;;;;11.74;82.15;97828.06;5084805;28;19928;-81
2023/03/30 09:29:32;;;;;;;;;;;;;;;11.86;81.20;97828.47;5082679;28;20011;-81
2023/03/30 09:32:12;;;;;;;;;;;;;;;11.94;81.86;97819.84;5081924;28;19916;-81
2023/03/30 09:34:40;;;;;;;;;;;;;;;12.06;81.47;97819.47;5086021;28;20450;-81
2023/03/30 09:37:08;;;;;;;;;;;;;;;12.16;81.58;97821.25;5085611;28;19916;-82
2023/03/30 09:39:35;;;;;;;;;;;;;;;12.28;80.57;97824.31;5085659;28;19958;-82
2023/03/30 09:42:12;;;;;;;;;;;;;;;12.39;80.35;97821.25;5068162;28;19923;-81
2023/03/30 09:44:46;;;;;;;;;;;;;;;12.52;80.26;97825.09;5067379;28;20447;-82
2023/03/30 09:47:31;;;;;;;;;;;;;;;12.66;79.53;97837.53;5090830;28;19916;-82
2023/03/30 09:49:58;;;;;;;;;;;;;;;12.62;78.85;97830.38;5088723;28;19946;-82
2023/03/30 09:52:25;;;;;;;;;;;;;;;12.52;79.12;97822.44;5086969;28;19916;-82
2023/03/30 09:54:50;;;;;;;;;;;;;;;12.61;78.38;97821.53;5081910;28;21075;-82
2023/03/30 09:57:24;;;;;;;;;;;;;;;12.66;78.25;97823.34;5087122;28;19923;-82
2023/03/30 09:59:51;;;;;;;;;;;;;;;12.75;78.28;97818.97;5085568;28;20380;-82
2023/03/30 10:02:20;;;;;;;;;;;;;;;12.70;78.29;97821.69;5090748;28;20019;-82
2023/03/30 10:04:52;;;;;;;;;;;;;;;12.85;77.76;97821.50;5088092;28;19962;-81
2023/03/30 10:07:20;;;;;;;;;;;;;;;12.92;77.39;97813.91;5085702;28;19977;-82
2023/03/30 10:09:45;;;;;;;;;;;;;;;12.92;77.37;97807.75;5089039;28;19975;-82
2023/03/30 10:12:11;;;;;;;;;;;;;;;12.96;77.20;97814.13;5085030;28;19967;-82
2023/03/30 10:14:37;;;;;;;;;;;;;;;12.92;77.78;97797.84;5068979;28;19928;-81
2023/03/30 10:17:03;;;;;;;;;;;;;;;12.95;76.83;97805.31;5072599;28;20428;-82
2023/03/30 10:19:29;;;;;;;;;;;;;;;13.01;76.84;97798.78;5088965;28;19926;-82
2023/03/30 10:21:56;;;;;;;;;;;;;;;12.92;77.00;97797.84;5084317;28;19924;-83
2023/03/30 10:24:21;;;;;;;;;;;;;;;13.08;76.78;97796.59;5088153;28;20010;-82
2023/03/30 10:26:49;;;;;;;;;;;;;;;13.04;76.92;97790.16;5087379;28;20238;-82
2023/03/30 10:29:20;;;;;;;;;;;;;;;13.06;76.27;97793.38;5090256;28;19920;-82
2023/03/30 10:31:49;;;;;;;;;;;;;;;13.00;77.15;97793.69;5071630;28;19920;-82
2023/03/30 10:34:21;;;;;;;;;;;;;;;13.11;77.05;97789.81;5071198;28;20373;-83
2023/03/30 10:36:47;;;;;;;;;;;;;;;13.12;76.90;97786.88;5068391;28;19971;-82
2023/03/30 10:39:29;;;;;;;;;;;;;;;13.15;77.11;97788.94;5088980;28;19916;-83
2023/03/30 10:41:55;;;;;;;;;;;;;;;13.15;77.76;97785.50;5095595;28;20368;-82
2023/03/30 10:44:25;;;;;;;;;;;;;;;13.09;78.06;97770.56;5056307;28;19920;-82
2023/03/30 10:46:51;;;;;;;;;;;;;;;13.10;78.38;97767.63;5065045;28;19971;-82
2023/03/30 10:49:26;;;;;;;;;;;;;;;13.24;77.86;97754.25;5088747;28;19925;-83
2023/03/30 10:52:11;;;;;;;;;;;;;;;13.31;77.15;97747.44;5067724;28;20308;-82
2023/03/30 10:54:43;;;;;;;;;;;;;;;13.56;76.43;97737.41;5080467;28;20315;-82
2023/03/30 10:57:12;;;;;;;;;;;;;;;13.59;76.27;97732.22;5083803;28;19924;-83
2023/03/30 10:59:40;;;;;;;;;;;;;;;13.61;75.92;97734.63;5083906;28;20360;-82
2023/03/30 11:02:24;;;;;;;;;;;;;;;13.67;76.07;97736.13;5087321;28;19927;-83
2023/03/30 11:05:05;;;;;;;;;;;;;;;13.63;75.81;97733.22;5084640;28;19924;-83
2023/03/30 11:07:30;;;;;;;;;;;;;;;13.83;74.99;97748.16;5085941;28;19916;-82
2023/03/30 11:10:01;;;;;;;;;;;;;;;13.82;74.38;97768.84;5085230;28;20297;-83
2023/03/30 11:12:33;;;;;;;;;;;;;;;13.85;74.35;97829.13;5084288;28;19927;-82
2023/03/30 11:15:01;;;;;;;;;;;;;;;13.30;75.95;97897.81;5072970;28;19925;-84
2023/03/30 11:17:47;;;;;;;;;;;;;;;12.78;79.64;97893.34;5072217;28;19916;-85
2023/03/30 11:20:26;;;;;;;;;;;;;;;12.22;81.20;97873.59;5093232;28;19939;-85
2023/03/30 11:22:58;;;;;;;;;;;;;;;12.02;82.51;97867.38;5094426;28;20022;-83
2023/03/30 11:25:32;;;;;;;;;;;;;;;11.81;83.23;97857.94;5095594;28;20304;-83
2023/03/30 11:28:02;;;;;;;;;;;;;;;11.61;83.46;97873.28;5061568;28;19920;-84
2023/03/30 11:30:29;;;;;;;;;;;;;;;11.55;84.07;97869.06;5089310;28;19979;-83
2023/03/30 11:32:58;;;;;;;;;;;;;;;11.51;83.86;97866.13;5094772;28;19919;-84
2023/03/30 11:35:35;;;;;;;;;;;;;;;11.38;84.51;97866.75;5081708;28;20014;-85
2023/03/30 11:38:18;;;;;;;;;;;;;;;11.18;85.21;97848.22;5075684;28;19927;-84
2023/03/30 11:40:50;;;;;;;;;;;;;;;10.97;85.80;97831.50;5086204;28;19995;-83
2023/03/30 11:43:17;;;;;;;;;;;;;;;10.99;85.76;97823.19;5094118;28;19921;-83
2023/03/30 11:45:49;;;;;;;;;;;;;;;10.94;85.71;97809.91;5098244;28;19923;-83
2023/03/30 11:48:21;;;;;;;;;;;;;;;10.81;86.39;97847.88;5091520;28;19931;-82
2023/03/30 11:50:55;;;;;;;;;;;;;;;10.89;86.37;97850.78;5090847;28;19917;-83
2023/03/30 11:53:23;;;;;;;;;;;;;;;10.74;86.61;97847.38;5096767;28;20427;-82
2023/03/30 11:55:48;;;;;;;;;;;;;;;10.79;86.47;97858.03;5099976;28;20288;-82
2023/03/30 11:58:13;;;;;;;;;;;;;;;10.84;86.31;97858.78;5093412;28;19941;-83
2023/03/30 12:00:44;;;;;;;;;;;;;;;10.68;86.46;97864.47;5077207;28;19924;-82
2023/03/30 12:03:16;;;;;;;;;;;;;;;10.78;86.57;97867.91;5074917;28;20376;-82
2023/03/30 12:05:51;;;;;;;;;;;;;;;10.83;86.27;97859.88;5077889;28;19987;-81
2023/03/30 12:08:37;;;;;;;;;;;;;;;10.83;87.21;97857.22;5096597;28;19916;-83
2023/03/30 12:11:14;;;;;;;;;;;;;;;10.99;86.30;97865.91;5075890;28;20465;-81
2023/03/30 12:13:40;;;;;;;;;;;;;;;11.14;86.41;97874.66;5081078;28;19924;-81
2023/03/30 12:16:07;;;;;;;;;;;;;;;11.24;86.62;97871.16;5089940;28;19946;-81
2023/03/30 12:18:42;;;;;;;;;;;;;;;11.21;87.05;97874.34;5074414;28;19928;-81
2023/03/30 12:21:19;;;;;;;;;;;;;;;11.29;86.40;97879.13;5097110;28;19935;-81
2023/03/30 12:24:03;;;;;;;;;;;;;;;11.28;86.72;97872.19;5085758;28;20019;-82
2023/03/30 12:26:33;;;;;;;;;;;;;;;11.29;86.45;97871.13;5097530;28;19920;-81
2023/03/30 12:29:17;;;;;;;;;;;;;;;11.29;86.37;97871.13;5084518;28;19916;-81
2023/03/30 12:31:54;;;;;;;;;;;;;;;11.29;87.34;97866.56;5098390;28;19916;-81
2023/03/30 12:34:20;;;;;;;;;;;;;;;11.62;86.49;97856.97;5094948;28;20422;-81
2023/03/30 12:36:47;;;;;;;;;;;;;;;11.95;85.06;97858.06;5093487;28;19947;-82
2023/03/30 12:39:32;;;;;;;;;;;;;;;11.93;84.39;97847.66;5088850;28;19923;-82
2023/03/30 12:42:05;;;;;;;;;;;;;;;11.86;84.19;97828.47;5077890;28;19944;-81
2023/03/30 12:44:41;;;;;;;;;;;;;;;11.90;83.28;97813.44;5094361;28;19923;-81
2023/03/30 12:47:17;;;;;;;;;;;;;;;12.02;83.42;97810.41;5092622;28;19923;-81
2023/03/30 12:49:42;;;;;;;;;;;;;;;12.19;82.51;97826.81;5092362;28;19920;-80
2023/03/30 12:52:13;;;;;;;;;;;;;;;12.40;81.99;97836.25;5086558;28;20453;-81
2023/03/30 12:55:04;;;;;;;;;;;;;;;12.72;81.35;97851.66;5093407;28;19924;-82
2023/03/30 12:57:35;;;;;;;;;;;;;;;12.99;80.15;97857.22;5088793;28;19920;-81
2023/03/30 13:00:07;;;;;;;;;;;;;;;13.20;78.92;97861.22;5076110;28;19916;-82